createdAt,value
2022-10-28T00:00:16.448Z,5.55
2022-10-28T00:02:43.260Z,4.78
2022-10-28T00:05:10.052Z,4.78
2022-10-28T00:07:36.778Z,4.95
2022-10-28T00:10:05.560Z,4.95
2022-10-28T00:12:36.027Z,4.90
2022-10-28T00:15:03.322Z,4.80
2022-10-28T00:17:30.065Z,4.82
2022-10-28T00:19:56.862Z,4.78
2022-10-28T00:22:24.123Z,4.65
2022-10-28T00:24:50.794Z,5.03
2022-10-28T00:27:17.488Z,5.10
2022-10-28T00:29:44.180Z,5.03
2022-10-28T00:32:11.228Z,4.63
2022-10-28T00:34:39.436Z,4.57
2022-10-28T00:37:07.306Z,4.90
2022-10-28T00:39:33.972Z,4.93
2022-10-28T00:42:03.975Z,5.28
2022-10-28T00:45:00.625Z,5.80
2022-10-28T00:47:55.788Z,5.30
2022-10-28T00:50:23.059Z,4.75
2022-10-28T00:52:56.452Z,5.00
2022-10-28T00:55:24.663Z,5.60
2022-10-28T00:57:56.735Z,5.30
2022-10-28T01:00:25.854Z,4.95
2022-10-28T01:02:52.582Z,4.93
2022-10-28T01:05:25.231Z,5.22
2022-10-28T01:07:54.607Z,5.00
2022-10-28T01:10:39.697Z,4.95
2022-10-28T01:13:36.754Z,4.88
2022-10-28T01:16:17.727Z,5.35
2022-10-28T01:18:56.427Z,5.03
2022-10-28T01:21:32.077Z,5.20
2022-10-28T01:24:29.363Z,5.28
2022-10-28T01:27:43.612Z,5.72
2022-10-28T01:30:15.362Z,5.47
2022-10-28T01:32:44.851Z,5.00
2022-10-28T01:35:35.298Z,4.72
2022-10-28T01:38:28.888Z,5.13
2022-10-28T01:41:02.576Z,5.15
2022-10-28T01:43:48.452Z,4.70
2022-10-28T01:46:21.216Z,5.22
2022-10-28T01:49:01.112Z,5.32
2022-10-28T01:51:48.607Z,5.15
2022-10-28T01:54:20.153Z,4.63
2022-10-28T01:56:49.131Z,4.70
2022-10-28T01:59:25.465Z,5.07
2022-10-28T02:01:52.423Z,5.03
2022-10-28T02:04:19.229Z,4.88
2022-10-28T02:06:52.173Z,5.15
2022-10-28T02:09:37.801Z,5.25
2022-10-28T02:12:28.500Z,5.63
2022-10-28T02:15:17.537Z,5.50
2022-10-28T02:18:12.224Z,4.32
2022-10-28T02:21:02.240Z,5.28
2022-10-28T02:23:39.005Z,5.15
2022-10-28T02:26:14.171Z,5.00
2022-10-28T02:29:05.643Z,5.28
2022-10-28T02:31:39.852Z,5.07
2022-10-28T02:34:14.590Z,5.15
2022-10-28T02:36:46.252Z,4.85
2022-10-28T02:39:16.501Z,5.47
2022-10-28T02:41:43.130Z,4.72
2022-10-28T02:44:18.085Z,4.65
2022-10-28T02:46:48.716Z,5.35
2022-10-28T02:49:15.898Z,5.25
2022-10-28T02:52:00.955Z,5.45
2022-10-28T02:54:44.080Z,5.13
2022-10-28T02:57:15.664Z,5.50
2022-10-28T02:59:42.349Z,4.97
2022-10-28T03:02:09.368Z,5.35
2022-10-28T03:04:36.221Z,5.53
2022-10-28T03:07:02.935Z,5.38
2022-10-28T03:09:30.011Z,5.10
2022-10-28T03:11:56.679Z,4.70
2022-10-28T03:14:24.611Z,5.05
2022-10-28T03:16:51.292Z,5.97
2022-10-28T03:19:20.050Z,5.30
2022-10-28T03:21:46.768Z,5.93
2022-10-28T03:24:13.446Z,4.90
2022-10-28T03:26:40.192Z,5.05
2022-10-28T03:29:06.919Z,4.60
2022-10-28T03:31:35.343Z,5.45
2022-10-28T03:34:02.526Z,5.35
2022-10-28T03:36:29.155Z,4.93
2022-10-28T03:38:55.862Z,5.38
2022-10-28T03:41:22.511Z,4.80
2022-10-28T03:43:49.254Z,4.90
2022-10-28T03:46:17.052Z,5.57
2022-10-28T03:48:43.958Z,4.68
2022-10-28T03:51:10.792Z,5.03
2022-10-28T03:53:37.478Z,5.03
2022-10-28T03:56:04.536Z,4.97
2022-10-28T03:58:31.327Z,5.70
2022-10-28T04:00:58.145Z,5.70
2022-10-28T04:03:25.659Z,5.13
2022-10-28T04:05:52.692Z,4.63
2022-10-28T04:08:20.772Z,4.78
2022-10-28T04:10:48.089Z,5.93
2022-10-28T04:13:17.932Z,5.68
2022-10-28T04:15:44.663Z,4.40
2022-10-28T04:18:12.211Z,4.93
2022-10-28T04:20:39.156Z,4.90
2022-10-28T04:23:06.514Z,5.60
2022-10-28T04:25:33.337Z,5.05
2022-10-28T04:28:00.083Z,5.20
2022-10-28T04:30:26.847Z,5.25
2022-10-28T04:32:53.539Z,5.10
2022-10-28T04:35:20.258Z,4.60
2022-10-28T04:37:48.175Z,5.45
2022-10-28T04:40:14.886Z,5.13
2022-10-28T04:42:41.596Z,5.25
2022-10-28T04:45:09.050Z,5.03
2022-10-28T04:47:35.726Z,5.07
2022-10-28T04:50:03.388Z,4.80
2022-10-28T04:52:30.515Z,5.25
2022-10-28T04:54:57.172Z,5.50
2022-10-28T04:57:23.912Z,4.85
2022-10-28T04:59:50.624Z,5.50
2022-10-28T05:02:17.500Z,4.63
2022-10-28T05:04:44.236Z,5.18
2022-10-28T05:07:10.902Z,5.88
2022-10-28T05:09:37.576Z,4.90
2022-10-28T05:12:04.510Z,4.78
2022-10-28T05:14:31.427Z,5.20
2022-10-28T05:16:58.096Z,4.70
2022-10-28T05:19:24.808Z,4.68
2022-10-28T05:21:51.592Z,4.85
2022-10-28T05:24:18.291Z,4.75
2022-10-28T05:26:44.976Z,5.43
2022-10-28T05:29:11.779Z,5.30
2022-10-28T05:31:39.705Z,4.30
2022-10-28T05:34:06.542Z,5.55
2022-10-28T05:36:33.523Z,5.40
2022-10-28T05:39:00.184Z,4.97
2022-10-28T05:41:26.879Z,5.25
2022-10-28T05:43:54.014Z,5.65
2022-10-28T05:46:22.611Z,5.15
2022-10-28T05:48:49.531Z,4.80
2022-10-28T05:51:16.345Z,5.20
2022-10-28T05:53:44.335Z,5.47
2022-10-28T05:56:11.477Z,5.47
2022-10-28T05:58:38.292Z,5.03
2022-10-28T06:01:08.439Z,4.78
2022-10-28T06:03:35.532Z,5.43
2022-10-28T06:06:04.956Z,5.88
2022-10-28T06:08:31.768Z,5.13
2022-10-28T06:10:57.048Z,5.05
2022-10-28T06:13:24.551Z,4.82
2022-10-28T06:15:55.227Z,5.57
2022-10-28T06:18:23.060Z,5.57
2022-10-28T06:20:54.683Z,5.03
2022-10-28T06:23:22.309Z,5.25
2022-10-28T06:25:49.499Z,5.50
2022-10-28T06:28:16.273Z,5.13
2022-10-28T06:30:42.936Z,5.13
2022-10-28T06:33:10.636Z,4.65
2022-10-28T06:35:37.804Z,5.53
2022-10-28T06:38:08.510Z,6.00
2022-10-28T06:40:36.238Z,5.70
2022-10-28T06:43:05.236Z,5.65
2022-10-28T06:45:34.342Z,6.18
2022-10-28T06:48:05.361Z,5.50
2022-10-28T06:50:36.917Z,5.78
2022-10-28T06:53:04.129Z,5.93
2022-10-28T06:55:31.385Z,5.00
2022-10-28T06:58:02.423Z,5.28
2022-10-28T07:03:17.470Z,4.47
2022-10-28T07:05:44.539Z,6.05
2022-10-28T07:08:11.355Z,5.97
2022-10-28T07:10:39.053Z,6.03
2022-10-28T07:13:05.789Z,5.00
2022-10-28T07:15:32.572Z,5.13
2022-10-28T07:17:59.939Z,5.55
2022-10-28T07:20:28.426Z,5.25
2022-10-28T07:23:00.713Z,6.50
2022-10-28T07:25:29.654Z,5.22
2022-10-28T07:28:03.023Z,5.50
2022-10-28T07:30:31.974Z,5.50
2022-10-28T07:33:01.131Z,5.65
2022-10-28T07:35:28.717Z,5.65
2022-10-28T07:37:55.389Z,5.55
2022-10-28T07:40:22.834Z,4.88
2022-10-28T07:42:49.543Z,5.60
2022-10-28T07:45:17.334Z,6.18
2022-10-28T07:47:44.677Z,5.63
2022-10-28T07:50:12.418Z,5.75
2022-10-28T07:52:40.459Z,5.82
2022-10-28T07:55:07.936Z,5.65
2022-10-28T07:57:35.520Z,5.38
2022-10-28T08:00:02.986Z,5.95
2022-10-28T08:02:32.492Z,5.50
2022-10-28T08:05:01.622Z,6.00
2022-10-28T08:07:28.911Z,5.60
2022-10-28T08:09:55.770Z,5.30
2022-10-28T08:12:22.478Z,5.18
2022-10-28T08:14:49.235Z,5.90
2022-10-28T08:17:16.083Z,5.53
2022-10-28T08:19:42.790Z,5.88
2022-10-28T08:22:09.522Z,5.43
2022-10-28T08:24:36.862Z,5.43
2022-10-28T08:27:03.633Z,6.45
2022-10-28T08:29:30.453Z,5.97
2022-10-28T08:31:58.493Z,5.00
2022-10-28T08:34:30.124Z,5.75
2022-10-28T08:36:57.932Z,5.60
2022-10-28T08:39:24.830Z,4.82
2022-10-28T08:42:03.314Z,5.75
2022-10-28T08:44:33.063Z,5.70
2022-10-28T08:47:30.747Z,6.38
2022-10-28T08:50:05.414Z,5.10
2022-10-28T08:52:54.243Z,5.13
2022-10-28T08:55:24.445Z,5.65
2022-10-28T08:58:00.793Z,5.18
2022-10-28T09:00:33.150Z,5.40
2022-10-28T09:03:17.430Z,5.78
2022-10-28T09:08:26.309Z,4.97
2022-10-28T09:11:26.332Z,5.50
2022-10-28T09:14:15.042Z,4.97
2022-10-28T09:16:49.813Z,5.38
2022-10-28T09:19:58.387Z,6.15
2022-10-28T09:22:46.084Z,5.50
2022-10-28T09:25:53.648Z,5.75
2022-10-28T09:28:23.577Z,5.13
2022-10-28T09:30:59.537Z,5.07
2022-10-28T09:33:35.076Z,5.50
2022-10-28T09:36:03.957Z,5.82
2022-10-28T09:38:40.720Z,6.38
2022-10-28T09:41:34.855Z,5.03
2022-10-28T09:44:22.685Z,6.30
2022-10-28T09:46:53.666Z,6.25
2022-10-28T09:49:34.950Z,6.35
2022-10-28T09:52:07.655Z,5.60
2022-10-28T09:54:38.431Z,4.57
2022-10-28T09:57:05.946Z,5.00
2022-10-28T09:59:33.502Z,5.43
2022-10-28T10:02:00.523Z,5.60
2022-10-28T10:04:29.011Z,5.40
2022-10-28T10:07:02.092Z,5.10
2022-10-28T10:09:32.026Z,6.33
2022-10-28T10:12:09.768Z,5.10
2022-10-28T10:14:45.306Z,5.47
2022-10-28T10:17:14.352Z,4.70
2022-10-28T10:20:18.506Z,5.25
2022-10-28T10:22:48.471Z,5.43
2022-10-28T10:25:25.336Z,5.50
2022-10-28T10:28:05.512Z,5.45
2022-10-28T10:30:39.827Z,5.13
2022-10-28T10:33:17.616Z,4.75
2022-10-28T10:35:44.397Z,4.78
2022-10-28T10:38:16.054Z,5.38
2022-10-28T10:40:51.601Z,5.10
2022-10-28T10:43:18.287Z,5.55
2022-10-28T10:45:54.279Z,5.55
2022-10-28T10:48:21.119Z,5.35
2022-10-28T10:50:49.844Z,4.85
2022-10-28T10:53:23.357Z,4.60
2022-10-28T10:55:54.235Z,4.72
2022-10-28T10:58:24.700Z,5.10
2022-10-28T11:00:55.173Z,5.25
2022-10-28T11:03:30.638Z,4.82
2022-10-28T11:06:21.815Z,4.97
2022-10-28T11:15:28.480Z,4.97
2022-10-28T11:18:04.572Z,4.70
2022-10-28T11:20:50.140Z,5.00
2022-10-28T11:23:16.814Z,5.07
2022-10-28T11:25:46.858Z,4.70
2022-10-28T11:28:31.071Z,4.88
2022-10-28T11:33:51.959Z,5.35
2022-10-28T11:36:37.374Z,5.55
2022-10-28T11:39:15.839Z,6.03
2022-10-28T11:42:00.698Z,5.00
2022-10-28T11:44:33.503Z,4.75
2022-10-28T11:47:06.082Z,5.50
2022-10-28T11:49:35.580Z,5.07
2022-10-28T11:52:38.114Z,4.32
2022-10-28T11:55:39.271Z,5.03
2022-10-28T11:58:24.567Z,5.68
2022-10-28T12:01:26.440Z,4.72
2022-10-28T12:04:17.507Z,4.53
2022-10-28T12:07:21.091Z,5.32
2022-10-28T12:10:19.686Z,6.10
2022-10-28T12:13:24.943Z,5.18
2022-10-28T12:16:06.798Z,4.22
2022-10-28T12:18:49.859Z,5.03
2022-10-28T12:21:23.491Z,5.10
2022-10-28T12:23:52.340Z,4.60
2022-10-28T12:26:21.334Z,4.82
2022-10-28T12:28:55.739Z,4.05
2022-10-28T12:31:45.533Z,4.88
2022-10-28T12:34:16.925Z,4.32
2022-10-28T12:36:53.097Z,4.40
2022-10-28T12:39:26.168Z,5.03
2022-10-28T12:42:03.000Z,4.27
2022-10-28T12:44:32.265Z,4.40
2022-10-28T12:47:20.578Z,4.93
2022-10-28T12:50:05.473Z,4.75
2022-10-28T12:52:47.201Z,4.85
2022-10-28T12:58:31.775Z,4.65
2022-10-28T13:01:16.791Z,4.82
2022-10-28T13:03:43.750Z,4.32
2022-10-28T13:06:32.543Z,4.97
2022-10-28T13:09:12.723Z,4.60
2022-10-28T13:11:57.087Z,4.72
2022-10-28T13:14:57.984Z,4.82
2022-10-28T13:17:33.996Z,4.65
2022-10-28T13:20:30.046Z,4.60
2022-10-28T13:23:21.333Z,4.82
2022-10-28T13:25:59.939Z,4.82
2022-10-28T13:28:43.828Z,5.13
2022-10-28T13:31:10.914Z,5.65
2022-10-28T13:33:39.099Z,5.35
2022-10-28T13:36:27.196Z,5.38
2022-10-28T13:39:00.244Z,4.70
2022-10-28T13:41:48.853Z,4.70
2022-10-28T13:44:18.926Z,4.85
2022-10-28T13:47:00.417Z,5.15
2022-10-28T13:49:34.062Z,4.80
2022-10-28T13:52:06.676Z,4.97
2022-10-28T13:54:39.587Z,4.38
2022-10-28T13:57:13.553Z,4.72
2022-10-28T14:00:08.921Z,5.18
2022-10-28T14:02:40.341Z,4.97
2022-10-28T14:05:10.060Z,5.22
2022-10-28T14:07:50.020Z,5.30
2022-10-28T14:10:24.480Z,4.68
2022-10-28T14:13:00.628Z,4.78
2022-10-28T14:15:39.750Z,4.40
2022-10-28T14:18:41.598Z,4.15
2022-10-28T14:21:02.522Z,4.50
2022-10-28T14:23:29.189Z,5.90
2022-10-28T14:25:56.359Z,4.88
2022-10-28T14:28:29.240Z,5.05
2022-10-28T14:31:08.245Z,4.93
2022-10-28T14:33:44.602Z,5.20
2022-10-28T14:36:20.318Z,5.20
2022-10-28T14:38:51.593Z,5.38
2022-10-28T14:41:24.101Z,5.30
2022-10-28T14:44:21.303Z,5.25
2022-10-28T14:46:54.189Z,5.22
2022-10-28T14:49:26.202Z,5.55
2022-10-28T14:51:54.193Z,5.40
2022-10-28T14:54:51.505Z,4.68
2022-10-28T14:57:22.788Z,4.68
2022-10-28T14:59:51.671Z,5.07
2022-10-28T15:02:24.297Z,4.43
2022-10-28T15:05:10.001Z,4.97
2022-10-28T15:07:38.316Z,4.95
2022-10-28T15:10:29.597Z,5.07
2022-10-28T15:12:58.097Z,4.53
2022-10-28T15:15:28.102Z,5.25
2022-10-28T15:17:56.743Z,4.95
2022-10-28T15:20:25.579Z,5.28
2022-10-28T15:22:54.007Z,5.18
2022-10-28T15:25:22.462Z,5.35
2022-10-28T15:27:54.004Z,5.07
2022-10-28T15:30:25.279Z,6.13
2022-10-28T15:32:53.835Z,5.43
2022-10-28T15:35:38.652Z,5.38
2022-10-28T15:38:31.321Z,5.10
2022-10-28T15:40:59.312Z,5.63
2022-10-28T15:43:30.828Z,5.65
2022-10-28T15:46:15.105Z,6.10
2022-10-28T15:48:43.074Z,5.32
2022-10-28T15:51:14.891Z,5.30
2022-10-28T15:53:48.962Z,5.72
2022-10-28T15:56:23.131Z,5.95
2022-10-28T15:58:58.916Z,5.90
2022-10-28T16:01:28.730Z,5.32
2022-10-28T16:03:55.903Z,6.10
2022-10-28T16:06:29.106Z,6.25
2022-10-28T16:09:09.947Z,6.38
2022-10-28T16:11:42.510Z,6.07
2022-10-28T16:14:36.725Z,5.68
2022-10-28T16:17:16.741Z,5.78
2022-10-28T16:20:16.991Z,6.22
2022-10-28T16:22:45.931Z,6.15
2022-10-28T16:25:15.983Z,6.05
2022-10-28T16:27:42.915Z,5.78
2022-10-28T16:30:10.398Z,5.97
2022-10-28T16:32:41.927Z,5.20
2022-10-28T16:35:27.005Z,6.60
2022-10-28T16:37:55.725Z,5.55
2022-10-28T16:40:51.167Z,6.15
2022-10-28T16:43:24.703Z,5.90
2022-10-28T16:45:54.552Z,5.18
2022-10-28T16:48:25.453Z,7.75
2022-10-28T16:50:56.165Z,6.28
2022-10-28T16:53:23.340Z,5.82
2022-10-28T16:55:51.399Z,5.45
2022-10-28T16:58:21.858Z,5.95
2022-10-28T17:00:51.411Z,5.70
2022-10-28T17:03:18.095Z,7.47
2022-10-28T17:05:45.199Z,7.45
2022-10-28T17:08:12.247Z,7.20
2022-10-28T17:10:40.695Z,6.40
2022-10-28T17:13:11.689Z,6.13
2022-10-28T17:15:38.459Z,6.78
2022-10-28T17:18:05.315Z,6.07
2022-10-28T17:20:34.388Z,6.60
2022-10-28T17:23:01.181Z,6.88
2022-10-28T17:25:28.128Z,6.75
2022-10-28T17:27:55.632Z,6.95
2022-10-28T17:30:23.154Z,9.23
2022-10-28T17:32:52.599Z,9.73
2022-10-28T17:35:25.343Z,8.13
2022-10-28T17:37:52.666Z,11.98
2022-10-28T17:40:19.567Z,8.35
2022-10-28T17:42:46.398Z,6.85
2022-10-28T17:45:17.898Z,5.95
2022-10-28T17:47:48.331Z,6.38
2022-10-28T17:50:16.297Z,6.20
2022-10-28T17:52:43.031Z,6.70
2022-10-28T17:55:10.061Z,7.00
2022-10-28T17:57:36.757Z,5.68
2022-10-28T18:00:03.983Z,5.40
2022-10-28T18:02:31.002Z,7.07
2022-10-28T18:04:57.862Z,5.90
2022-10-28T18:07:24.724Z,5.90
2022-10-28T18:09:51.436Z,6.60
2022-10-28T18:12:22.489Z,6.10
2022-10-28T18:14:49.157Z,5.15
2022-10-28T18:17:20.124Z,6.13
2022-10-28T18:19:46.844Z,5.32
2022-10-28T18:22:16.606Z,5.65
2022-10-28T18:24:44.812Z,6.03
2022-10-28T18:27:11.452Z,5.93
2022-10-28T18:29:39.392Z,5.55
2022-10-28T18:32:06.128Z,5.82
2022-10-28T18:34:33.198Z,5.32
2022-10-28T18:36:59.943Z,5.72
2022-10-28T18:39:26.665Z,5.57
2022-10-28T18:41:53.380Z,6.03
2022-10-28T18:44:22.672Z,5.80
2022-10-28T18:46:51.598Z,6.38
2022-10-28T18:49:19.447Z,6.53
2022-10-28T18:51:46.215Z,5.53
2022-10-28T18:54:13.112Z,6.30
2022-10-28T18:56:44.805Z,5.80
2022-10-28T18:59:14.549Z,6.00
2022-10-28T19:01:46.615Z,6.32
2022-10-28T19:04:14.509Z,6.07
2022-10-28T19:06:42.716Z,5.82
2022-10-28T19:09:09.535Z,5.82
2022-10-28T19:11:36.331Z,5.97
2022-10-28T19:14:05.781Z,6.20
2022-10-28T19:16:33.783Z,6.18
2022-10-28T19:19:05.652Z,5.95
2022-10-28T19:21:32.947Z,5.43
2022-10-28T19:23:59.878Z,4.93
2022-10-28T19:26:26.725Z,6.35
2022-10-28T19:28:54.347Z,5.80
2022-10-28T19:31:23.714Z,5.50
2022-10-28T19:33:53.146Z,5.70
2022-10-28T19:36:22.591Z,6.20
2022-10-28T19:38:50.681Z,6.13
2022-10-28T19:41:19.847Z,6.38
2022-10-28T19:43:47.034Z,5.35
2022-10-28T19:46:19.140Z,5.95
2022-10-28T19:48:51.498Z,6.15
2022-10-28T19:51:21.126Z,5.97
2022-10-28T19:53:52.677Z,5.80
2022-10-28T19:56:20.213Z,6.57
2022-10-28T19:58:51.360Z,6.38
2022-10-28T20:01:18.497Z,6.93
2022-10-28T20:03:49.235Z,6.68
2022-10-28T20:06:17.225Z,6.18
2022-10-28T20:08:44.924Z,6.00
2022-10-28T20:11:14.568Z,6.60
2022-10-28T20:13:42.236Z,6.57
2022-10-28T20:16:13.577Z,5.85
2022-10-28T20:18:40.643Z,6.63
2022-10-28T20:21:14.130Z,6.22
2022-10-28T20:23:42.087Z,6.05
2022-10-28T20:26:09.971Z,6.40
2022-10-28T20:28:37.099Z,6.72
2022-10-28T20:31:15.678Z,6.47
2022-10-28T20:33:44.455Z,7.13
2022-10-28T20:36:29.183Z,6.43
2022-10-28T20:39:00.201Z,5.40
2022-10-28T20:41:29.215Z,5.82
2022-10-28T20:43:56.019Z,6.47
2022-10-28T20:46:24.175Z,6.28
2022-10-28T20:48:54.303Z,5.82
2022-10-28T20:51:23.103Z,5.13
2022-10-28T20:53:52.634Z,6.47
2022-10-28T20:56:24.328Z,5.60
2022-10-28T20:58:51.934Z,5.50
2022-10-28T21:01:36.674Z,5.85
2022-10-28T21:04:06.987Z,5.40
2022-10-28T21:06:34.669Z,5.97
2022-10-28T21:09:01.467Z,5.50
2022-10-28T21:11:28.850Z,5.40
2022-10-28T21:13:57.884Z,5.72
2022-10-28T21:16:26.742Z,5.78
2022-10-28T21:18:53.508Z,6.00
2022-10-28T21:21:21.064Z,6.05
2022-10-28T21:23:47.810Z,6.00
2022-10-28T21:26:15.944Z,5.63
2022-10-28T21:28:43.555Z,5.65
2022-10-28T21:31:13.447Z,6.07
2022-10-28T21:33:41.709Z,5.57
2022-10-28T21:36:17.679Z,6.05
2022-10-28T21:38:45.101Z,5.45
2022-10-28T21:41:17.450Z,5.20
2022-10-28T21:43:49.995Z,5.10
2022-10-28T21:46:17.795Z,5.30
2022-10-28T21:48:45.019Z,5.13
2022-10-28T21:51:14.835Z,6.07
2022-10-28T21:53:43.404Z,5.28
2022-10-28T21:56:16.719Z,5.50
2022-10-28T21:58:44.654Z,5.45
2022-10-28T22:01:14.135Z,5.82
2022-10-28T22:03:41.675Z,6.05
2022-10-28T22:06:08.664Z,5.20
2022-10-28T22:08:35.571Z,5.82
2022-10-28T22:11:14.563Z,5.97
2022-10-28T22:13:41.732Z,5.13
2022-10-28T22:16:11.749Z,5.63
2022-10-28T22:18:39.104Z,5.47
2022-10-28T22:21:09.312Z,5.13
2022-10-28T22:23:36.805Z,5.35
2022-10-28T22:26:05.575Z,5.78
2022-10-28T22:28:32.624Z,5.40
2022-10-28T22:31:14.298Z,6.07
2022-10-28T22:33:42.900Z,5.88
2022-10-28T22:36:12.816Z,5.13
2022-10-28T22:38:39.812Z,5.22
2022-10-28T22:41:12.576Z,5.18
2022-10-28T22:43:40.146Z,5.80
2022-10-28T22:46:07.145Z,5.68
2022-10-28T22:48:34.186Z,6.00
2022-10-28T22:51:01.247Z,5.25
2022-10-28T22:53:28.192Z,5.57
2022-10-28T22:55:56.014Z,5.50
2022-10-28T22:58:23.919Z,5.60
2022-10-28T23:00:51.056Z,5.30
2022-10-28T23:03:18.102Z,5.72
2022-10-28T23:05:44.937Z,5.93
2022-10-28T23:08:15.098Z,6.15
2022-10-28T23:10:42.064Z,6.22
2022-10-28T23:13:12.311Z,6.05
2022-10-28T23:15:39.095Z,5.70
2022-10-28T23:18:06.889Z,5.22
2022-10-28T23:20:35.552Z,5.63
2022-10-28T23:23:02.423Z,6.22
2022-10-28T23:25:29.127Z,5.65
2022-10-28T23:27:56.364Z,5.53
2022-10-28T23:30:24.400Z,6.25
2022-10-28T23:32:51.151Z,5.70
2022-10-28T23:35:17.868Z,5.65
2022-10-28T23:37:44.881Z,5.50
2022-10-28T23:40:12.575Z,6.05
2022-10-28T23:42:40.353Z,5.80
2022-10-28T23:45:07.676Z,6.30
2022-10-28T23:47:35.447Z,5.80
2022-10-28T23:50:02.569Z,6.13
2022-10-28T23:52:29.254Z,5.53
2022-10-28T23:54:55.966Z,5.90
2022-10-28T23:57:23.703Z,5.90
2022-10-28T23:59:50.349Z,5.72
